createdAt,value
2018-12-01T00:02:14.063Z,54.80
2018-12-01T00:04:42.048Z,54.80
2018-12-01T00:07:10.033Z,54.90
2018-12-01T00:09:38.048Z,54.80
2018-12-01T00:12:06.153Z,54.90
2018-12-01T00:14:34.166Z,55.10
2018-12-01T00:17:02.130Z,55.20
2018-12-01T00:19:30.107Z,55.00
2018-12-01T00:21:58.107Z,54.90
2018-12-01T00:24:26.130Z,54.90
2018-12-01T00:26:54.140Z,54.90
2018-12-01T00:29:22.155Z,55.00
2018-12-01T00:31:50.190Z,55.20
2018-12-01T00:34:18.153Z,55.30
2018-12-01T00:36:46.117Z,55.30
2018-12-01T00:39:14.186Z,55.40
2018-12-01T00:41:42.163Z,55.40
2018-12-01T00:44:10.153Z,55.50
2018-12-01T00:46:38.149Z,55.60
2018-12-01T00:49:06.112Z,55.60
2018-12-01T00:51:34.104Z,55.80
2018-12-01T00:54:02.208Z,55.90
2018-12-01T00:56:30.196Z,56.00
2018-12-01T00:58:58.176Z,56.10
2018-12-01T01:01:26.164Z,56.20
2018-12-01T01:03:54.161Z,56.40
2018-12-01T01:06:22.182Z,56.60
2018-12-01T01:08:50.160Z,56.80
2018-12-01T01:11:18.163Z,57.00
2018-12-01T01:13:46.122Z,57.10
2018-12-01T01:16:14.109Z,57.20
2018-12-01T01:18:42.100Z,57.20
2018-12-01T01:21:10.072Z,57.60
2018-12-01T01:23:38.060Z,57.40
2018-12-01T01:26:06.052Z,57.90
2018-12-01T01:28:34.030Z,58.00
2018-12-01T01:31:02.063Z,58.10
2018-12-01T01:33:30.449Z,58.30
2018-12-01T01:35:58.429Z,58.90
2018-12-01T01:38:26.518Z,58.30
2018-12-01T01:41:00.014Z,58.40
2018-12-01T01:43:28.033Z,58.50
2018-12-01T01:45:56.053Z,58.60
2018-12-01T01:48:23.999Z,58.60
2018-12-01T01:50:51.977Z,58.70
2018-12-01T01:53:20.038Z,58.80
2018-12-01T01:55:48.012Z,58.80
2018-12-01T01:58:16.033Z,58.90
2018-12-01T02:00:44.038Z,59.00
2018-12-01T02:03:12.046Z,59.00
2018-12-01T02:05:40.074Z,59.00
2018-12-01T02:08:08.058Z,58.90
2018-12-01T02:10:36.031Z,58.80
2018-12-01T02:13:04.174Z,59.00
2018-12-01T02:15:32.176Z,58.90
2018-12-01T02:18:00.185Z,59.00
2018-12-01T02:20:28.213Z,59.00
2018-12-01T02:22:56.254Z,58.90
2018-12-01T02:25:24.257Z,59.50
2018-12-01T02:27:52.612Z,58.90
2018-12-01T02:30:20.991Z,59.00
2018-12-01T02:32:49.274Z,59.00
2018-12-01T02:35:18.618Z,59.10
2018-12-01T02:37:46.597Z,59.20
2018-12-01T02:40:14.659Z,59.40
2018-12-01T02:42:43.081Z,59.40
2018-12-01T02:45:22.368Z,59.50
2018-12-01T02:47:50.399Z,59.50
2018-12-01T02:50:24.913Z,59.80
2018-12-01T02:52:53.759Z,60.00
2018-12-01T02:55:21.765Z,60.10
2018-12-01T02:57:49.875Z,60.20
2018-12-01T03:00:17.906Z,60.40
2018-12-01T03:02:45.882Z,60.40
2018-12-01T03:05:13.896Z,60.70
2018-12-01T03:07:41.920Z,60.70
2018-12-01T03:10:13.834Z,61.00
2018-12-01T03:12:41.825Z,61.30
2018-12-01T03:15:12.544Z,61.50
2018-12-01T03:17:40.633Z,62.30
2018-12-01T03:20:11.655Z,61.70
2018-12-01T03:22:39.689Z,61.80
2018-12-01T03:25:10.047Z,62.10
2018-12-01T03:27:38.385Z,62.20
2018-12-01T03:30:10.668Z,62.40
2018-12-01T03:32:38.713Z,62.50
2018-12-01T03:35:12.425Z,62.80
2018-12-01T03:37:43.108Z,62.80
2018-12-01T03:40:11.892Z,62.90
2018-12-01T03:42:39.920Z,63.10
2018-12-01T03:45:10.432Z,63.30
2018-12-01T03:47:38.473Z,63.50
2018-12-01T03:50:07.841Z,63.50
2018-12-01T03:52:35.840Z,63.80
2018-12-01T03:55:04.209Z,63.90
2018-12-01T03:57:32.176Z,64.10
2018-12-01T04:00:00.178Z,64.30
2018-12-01T04:02:28.150Z,64.40
2018-12-01T04:04:56.149Z,64.50
2018-12-01T04:07:24.144Z,64.80
2018-12-01T04:09:52.136Z,64.90
2018-12-01T04:12:20.148Z,64.90
2018-12-01T04:14:48.160Z,64.80
2018-12-01T04:17:16.132Z,65.70
2018-12-01T04:19:44.106Z,65.60
2018-12-01T04:22:12.118Z,65.70
2018-12-01T04:24:40.060Z,65.80
2018-12-01T04:27:08.024Z,66.00
2018-12-01T04:29:36.068Z,66.40
2018-12-01T04:32:04.080Z,66.10
2018-12-01T04:34:32.094Z,66.30
2018-12-01T04:37:00.080Z,66.40
2018-12-01T04:39:28.096Z,66.60
2018-12-01T04:41:56.064Z,66.70
2018-12-01T04:44:24.087Z,67.00
2018-12-01T04:46:52.068Z,66.90
2018-12-01T04:49:20.028Z,66.80
2018-12-01T04:51:48.053Z,67.00
2018-12-01T04:54:16.046Z,67.20
2018-12-01T04:56:44.010Z,67.20
2018-12-01T04:59:12.019Z,67.60
2018-12-01T05:01:40.034Z,67.70
2018-12-01T05:04:08.024Z,67.80
2018-12-01T05:06:36.084Z,67.60
2018-12-01T05:09:06.344Z,67.70
2018-12-01T05:11:34.372Z,67.80
2018-12-01T05:14:02.515Z,67.90
2018-12-01T05:16:30.508Z,68.00
2018-12-01T05:18:58.478Z,68.00
2018-12-01T05:21:26.536Z,67.90
2018-12-01T05:23:54.533Z,68.00
2018-12-01T05:26:22.510Z,67.60
2018-12-01T05:28:50.542Z,67.70
2018-12-01T05:31:18.536Z,67.80
2018-12-01T05:33:46.518Z,68.50
2018-12-01T05:36:14.543Z,68.70
2018-12-01T05:38:42.533Z,68.90
2018-12-01T05:41:10.512Z,69.30
2018-12-01T05:43:38.547Z,69.90
2018-12-01T05:46:06.548Z,69.80
2018-12-01T05:48:34.528Z,70.00
2018-12-01T05:51:02.535Z,69.90
2018-12-01T05:53:30.528Z,70.30
2018-12-01T05:55:58.514Z,70.30
2018-12-01T05:58:26.516Z,70.40
2018-12-01T06:00:54.506Z,71.00
2018-12-01T06:03:22.482Z,70.90
2018-12-01T06:05:50.496Z,70.60
2018-12-01T06:08:18.477Z,70.70
2018-12-01T06:10:46.590Z,70.70
2018-12-01T06:13:14.573Z,70.90
2018-12-01T06:15:42.588Z,70.30
2018-12-01T06:18:10.578Z,71.10
2018-12-01T06:20:38.624Z,70.60
2018-12-01T06:23:06.615Z,70.60
2018-12-01T06:25:34.621Z,70.30
2018-12-01T06:28:02.686Z,70.40
2018-12-01T06:30:30.670Z,70.50
2018-12-01T06:32:58.703Z,70.80
2018-12-01T06:35:26.721Z,70.60
2018-12-01T06:37:54.734Z,70.90
2018-12-01T06:40:22.755Z,71.20
2018-12-01T06:42:50.793Z,71.40
2018-12-01T06:45:18.974Z,71.40
2018-12-01T06:47:47.034Z,71.40
2018-12-01T06:50:17.424Z,71.10
2018-12-01T06:52:45.461Z,71.00
2018-12-01T06:55:14.023Z,71.30
2018-12-01T06:57:43.080Z,71.30
2018-12-01T07:00:12.532Z,71.30
2018-12-01T07:02:40.917Z,71.30
2018-12-01T07:05:10.279Z,71.80
2018-12-01T07:07:38.266Z,71.70
2018-12-01T07:10:09.866Z,71.10
2018-12-01T07:12:37.930Z,71.20
2018-12-01T07:15:08.318Z,70.70
2018-12-01T07:17:36.374Z,70.00
2018-12-01T07:20:05.159Z,69.80
2018-12-01T07:22:33.156Z,70.00
2018-12-01T07:25:01.182Z,69.30
2018-12-01T07:27:29.184Z,69.50
2018-12-01T07:29:58.197Z,69.30
2018-12-01T07:32:25.268Z,69.00
2018-12-01T07:34:53.253Z,68.90
2018-12-01T07:37:21.257Z,69.20
2018-12-01T07:39:49.275Z,68.40
2018-12-01T07:42:18.069Z,67.90
2018-12-01T07:44:47.042Z,67.90
2018-12-01T07:47:14.164Z,67.40
2018-12-01T07:49:42.178Z,65.70
2018-12-01T07:52:10.182Z,64.80
2018-12-01T07:54:38.196Z,64.30
2018-12-01T07:57:06.210Z,63.40
2018-12-01T07:59:34.194Z,63.70
2018-12-01T08:02:02.180Z,62.00
2018-12-01T08:04:30.140Z,61.80
2018-12-01T08:06:58.161Z,62.40
2018-12-01T08:09:26.165Z,63.10
2018-12-01T08:11:54.192Z,63.40
2018-12-01T08:14:22.211Z,63.80
2018-12-01T08:16:50.351Z,63.40
2018-12-01T08:19:18.351Z,63.80
2018-12-01T08:21:46.314Z,62.60
2018-12-01T08:24:14.351Z,62.50
2018-12-01T08:26:42.415Z,61.90
2018-12-01T08:29:10.428Z,62.10
2018-12-01T08:31:38.478Z,62.60
2018-12-01T08:34:06.487Z,60.90
2018-12-01T08:36:34.505Z,60.60
2018-12-01T08:39:02.653Z,60.30
2018-12-01T08:41:32.185Z,60.10
2018-12-01T08:44:00.185Z,60.20
2018-12-01T08:46:28.160Z,60.20
2018-12-01T08:48:56.161Z,59.90
2018-12-01T08:51:24.188Z,59.80
2018-12-01T08:53:52.217Z,59.60
2018-12-01T08:56:20.187Z,58.60
2018-12-01T08:58:48.173Z,58.60
2018-12-01T09:01:16.181Z,59.00
2018-12-01T09:03:44.156Z,58.30
2018-12-01T09:06:12.098Z,58.20
2018-12-01T09:08:40.105Z,58.30
2018-12-01T09:11:08.085Z,58.30
2018-12-01T09:13:36.099Z,58.40
2018-12-01T09:16:04.222Z,57.60
2018-12-01T09:18:32.256Z,57.80
2018-12-01T09:21:00.293Z,58.20
2018-12-01T09:23:28.319Z,57.60
2018-12-01T09:25:56.359Z,58.90
2018-12-01T09:28:24.398Z,58.10
2018-12-01T09:30:52.473Z,57.20
2018-12-01T09:33:20.601Z,57.10
2018-12-01T09:35:48.599Z,56.80
2018-12-01T09:38:16.617Z,56.80
2018-12-01T09:40:44.626Z,57.40
2018-12-01T09:43:12.679Z,56.80
2018-12-01T09:45:40.728Z,56.80
2018-12-01T09:48:08.859Z,56.70
2018-12-01T09:50:36.865Z,56.10
2018-12-01T09:53:05.337Z,56.50
2018-12-01T09:55:33.285Z,56.00
2018-12-01T09:58:01.269Z,56.10
2018-12-01T10:00:31.563Z,55.80
2018-12-01T10:03:03.587Z,55.20
2018-12-01T10:05:32.344Z,54.50
2018-12-01T10:08:00.389Z,54.60
2018-12-01T10:10:29.733Z,55.20
2018-12-01T10:12:58.066Z,55.30
2018-12-01T10:15:27.222Z,55.10
2018-12-01T10:17:55.445Z,54.40
2018-12-01T10:20:24.855Z,53.30
2018-12-01T10:22:52.882Z,53.40
2018-12-01T10:25:20.906Z,53.90
2018-12-01T10:27:48.928Z,53.60
2018-12-01T10:30:20.613Z,53.50
2018-12-01T10:32:49.453Z,53.40
2018-12-01T10:35:20.791Z,53.40
2018-12-01T10:37:54.460Z,53.20
2018-12-01T10:40:22.481Z,53.40
2018-12-01T10:42:50.491Z,52.90
2018-12-01T10:45:19.438Z,52.30
2018-12-01T10:47:47.550Z,52.60
2018-12-01T10:50:16.740Z,52.40
2018-12-01T10:52:45.742Z,52.50
2018-12-01T10:55:29.328Z,52.50
2018-12-01T10:58:01.583Z,52.60
2018-12-01T11:00:35.760Z,52.10
2018-12-01T11:03:04.022Z,51.70
2018-12-01T11:05:32.540Z,51.50
2018-12-01T11:08:00.661Z,51.70
2018-12-01T11:10:28.698Z,51.30
2018-12-01T11:12:56.715Z,51.10
2018-12-01T11:15:24.814Z,51.00
2018-12-01T11:17:52.926Z,51.30
2018-12-01T11:20:20.942Z,51.20
2018-12-01T11:22:48.960Z,51.80
2018-12-01T11:25:16.998Z,51.20
2018-12-01T11:27:45.057Z,51.10
2018-12-01T11:30:14.599Z,51.00
2018-12-01T11:32:42.648Z,50.90
2018-12-01T11:35:10.719Z,51.00
2018-12-01T11:37:38.829Z,50.90
2018-12-01T11:40:12.218Z,50.70
2018-12-01T11:42:40.334Z,50.80
2018-12-01T11:45:09.889Z,50.80
2018-12-01T11:47:37.982Z,50.60
2018-12-01T11:50:09.353Z,50.50
2018-12-01T11:52:37.347Z,50.10
2018-12-01T11:55:07.799Z,50.00
2018-12-01T11:57:35.838Z,49.80
2018-12-01T12:00:07.498Z,49.90
2018-12-01T12:02:35.558Z,49.70
2018-12-01T12:05:03.752Z,50.10
2018-12-01T12:07:42.976Z,50.00
2018-12-01T12:10:10.996Z,49.70
2018-12-01T12:12:39.050Z,50.40
2018-12-01T12:15:09.008Z,50.40
2018-12-01T12:17:37.258Z,50.00
2018-12-01T12:20:07.248Z,50.00
2018-12-01T12:22:35.338Z,50.10
2018-12-01T12:25:03.929Z,50.00
2018-12-01T12:27:31.974Z,50.20
2018-12-01T12:30:00.020Z,50.10
2018-12-01T12:32:28.226Z,50.20
2018-12-01T12:34:56.227Z,50.10
2018-12-01T12:37:24.267Z,50.30
2018-12-01T12:39:52.282Z,50.50
2018-12-01T12:42:20.474Z,50.40
2018-12-01T12:44:48.510Z,50.20
2018-12-01T12:47:16.489Z,50.40
2018-12-01T12:49:44.498Z,50.50
2018-12-01T12:52:12.526Z,50.50
2018-12-01T12:54:40.624Z,50.70
2018-12-01T12:57:08.699Z,50.50
2018-12-01T12:59:36.702Z,50.60
2018-12-01T13:02:05.334Z,50.70
2018-12-01T13:04:33.344Z,50.90
2018-12-01T13:07:01.332Z,51.00
2018-12-01T13:09:29.372Z,51.10
2018-12-01T13:11:57.529Z,51.20
2018-12-01T13:14:25.740Z,51.20
2018-12-01T13:16:53.934Z,51.20
2018-12-01T13:19:22.110Z,51.30
2018-12-01T13:21:50.367Z,51.20
2018-12-01T13:24:18.555Z,51.10
2018-12-01T13:26:46.877Z,51.50
2018-12-01T13:29:15.129Z,51.50
2018-12-01T13:31:43.409Z,51.90
2018-12-01T13:34:11.727Z,51.90
2018-12-01T13:36:40.093Z,52.10
2018-12-01T13:39:09.644Z,52.90
2018-12-01T13:41:37.872Z,52.40
2018-12-01T13:44:06.174Z,52.60
2018-12-01T13:46:34.432Z,52.90
2018-12-01T13:49:02.688Z,52.80
2018-12-01T13:51:30.991Z,52.80
2018-12-01T13:53:59.244Z,52.80
2018-12-01T13:56:27.448Z,53.20
2018-12-01T13:58:55.791Z,53.60
2018-12-01T14:01:24.033Z,53.60
2018-12-01T14:03:52.488Z,53.90
2018-12-01T14:06:20.780Z,53.90
2018-12-01T14:08:48.978Z,54.60
2018-12-01T14:11:17.279Z,54.30
2018-12-01T14:13:45.542Z,54.50
2018-12-01T14:16:13.773Z,54.60
2018-12-01T14:18:42.069Z,54.90
2018-12-01T14:21:10.307Z,55.20
2018-12-01T14:23:38.639Z,55.40
2018-12-01T14:26:06.915Z,56.00
2018-12-01T14:28:35.151Z,56.10
2018-12-01T14:31:03.433Z,56.30
2018-12-01T14:33:31.696Z,56.80
2018-12-01T14:35:59.929Z,57.00
2018-12-01T14:38:28.125Z,57.30
2018-12-01T14:40:56.301Z,57.30
2018-12-01T14:43:24.878Z,57.70
2018-12-01T14:45:53.053Z,57.60
2018-12-01T14:48:21.222Z,57.60
2018-12-01T14:50:49.293Z,57.90
2018-12-01T14:53:18.245Z,57.90
2018-12-01T14:55:46.241Z,57.80
2018-12-01T14:58:14.268Z,58.00
2018-12-01T15:00:42.289Z,58.10
2018-12-01T15:03:10.371Z,58.30
2018-12-01T15:05:39.625Z,58.50
2018-12-01T15:08:07.823Z,58.50
2018-12-01T15:10:36.126Z,58.70
2018-12-01T15:13:04.255Z,58.80
2018-12-01T15:15:32.327Z,58.90
2018-12-01T15:18:00.413Z,59.00
2018-12-01T15:20:28.565Z,59.10
2018-12-01T15:22:58.496Z,59.10
2018-12-01T15:25:31.954Z,59.10
2018-12-01T15:28:00.860Z,59.10
2018-12-01T15:30:29.852Z,59.20
2018-12-01T15:33:01.133Z,59.70
2018-12-01T15:35:29.241Z,59.90
2018-12-01T15:37:57.981Z,60.20
2018-12-01T15:40:26.072Z,60.40
2018-12-01T15:42:54.169Z,60.80
2018-12-01T15:45:22.824Z,61.30
2018-12-01T15:47:51.000Z,61.60
2018-12-01T15:50:20.221Z,61.80
2018-12-01T15:52:51.194Z,61.90
2018-12-01T15:55:19.516Z,61.90
2018-12-01T15:57:47.630Z,62.20
2018-12-01T16:00:18.671Z,62.70
2018-12-01T16:02:46.799Z,62.80
2018-12-01T16:05:15.903Z,62.80
2018-12-01T16:07:44.140Z,63.10
2018-12-01T16:10:14.256Z,63.40
2018-12-01T16:12:42.682Z,63.80
2018-12-01T16:15:21.416Z,63.70
2018-12-01T16:17:49.600Z,63.80
2018-12-01T16:20:17.645Z,64.00
2018-12-01T16:22:45.839Z,64.00
2018-12-01T16:25:15.964Z,63.90
2018-12-01T16:27:44.969Z,64.60
2018-12-01T16:30:45.158Z,64.50
2018-12-01T16:33:18.715Z,64.60
2018-12-01T16:35:45.548Z,64.80
2018-12-01T16:38:16.348Z,65.00
2018-12-01T16:40:46.312Z,65.10
2018-12-01T16:43:14.906Z,65.60
2018-12-01T16:45:44.057Z,66.00
2018-12-01T16:48:12.152Z,66.40
2018-12-01T16:50:40.786Z,66.60
2018-12-01T16:53:10.480Z,66.90
2018-12-01T16:55:38.755Z,67.40
2018-12-01T16:58:06.764Z,67.80
2018-12-01T17:00:34.801Z,68.10
2018-12-01T17:03:02.821Z,67.80
2018-12-01T17:05:32.227Z,67.60
2018-12-01T17:08:02.124Z,67.60
2018-12-01T17:10:30.082Z,67.60
2018-12-01T17:12:58.442Z,67.60
2018-12-01T17:15:26.256Z,67.70
2018-12-01T17:17:54.347Z,68.10
2018-12-01T17:20:22.376Z,68.50
2018-12-01T17:22:53.500Z,68.90
2018-12-01T17:25:21.597Z,69.30
2018-12-01T17:27:50.492Z,69.20
2018-12-01T17:30:22.485Z,69.30
2018-12-01T17:32:51.110Z,70.20
2018-12-01T17:35:20.508Z,69.30
2018-12-01T17:37:49.890Z,69.20
2018-12-01T17:40:22.828Z,69.10
2018-12-01T17:42:53.037Z,69.20
2018-12-01T17:45:21.109Z,68.90
2018-12-01T17:47:49.787Z,68.90
2018-12-01T17:50:17.976Z,69.30
2018-12-01T17:52:48.663Z,69.50
2018-12-01T17:55:16.948Z,69.90
2018-12-01T17:57:45.549Z,70.10
2018-12-01T18:00:16.098Z,69.90
2018-12-01T18:02:43.981Z,70.20
2018-12-01T18:05:13.673Z,69.80
2018-12-01T18:07:42.516Z,69.80
2018-12-01T18:10:12.703Z,70.80
2018-12-01T18:12:41.284Z,70.00
2018-12-01T18:15:13.397Z,69.70
2018-12-01T18:17:41.608Z,70.00
2018-12-01T18:20:20.020Z,69.50
2018-12-01T18:23:05.319Z,69.60
2018-12-01T18:25:39.108Z,69.00
2018-12-01T18:28:08.159Z,70.10
2018-12-01T18:30:37.348Z,70.10
2018-12-01T18:33:07.774Z,70.00
2018-12-01T18:35:35.779Z,70.40
2018-12-01T18:38:03.849Z,71.80
2018-12-01T18:40:33.868Z,71.20
2018-12-01T18:43:01.890Z,71.50
2018-12-01T18:45:29.934Z,71.50
2018-12-01T18:47:58.273Z,72.10
2018-12-01T18:50:26.323Z,71.80
2018-12-01T18:52:58.306Z,71.90
2018-12-01T18:55:27.562Z,71.90
2018-12-01T18:57:55.679Z,71.90
2018-12-01T19:00:26.264Z,71.90
2018-12-01T19:02:54.260Z,72.00
2018-12-01T19:05:22.332Z,72.00
2018-12-01T19:07:51.067Z,72.20
2018-12-01T19:10:19.372Z,72.30
2018-12-01T19:12:47.496Z,72.30
2018-12-01T19:15:16.737Z,72.20
2018-12-01T19:17:45.998Z,72.30
2018-12-01T19:20:15.794Z,72.30
2018-12-01T19:22:44.236Z,72.00
2018-12-01T19:25:14.912Z,71.90
2018-12-01T19:27:43.116Z,71.60
2018-12-01T19:30:13.125Z,71.60
2018-12-01T19:32:41.977Z,71.50
2018-12-01T19:35:12.424Z,71.50
2018-12-01T19:37:40.640Z,71.50
2018-12-01T19:40:14.222Z,71.40
2018-12-01T19:42:42.344Z,71.50
2018-12-01T19:45:10.675Z,71.60
2018-12-01T19:47:38.732Z,71.50
2018-12-01T19:50:15.444Z,71.80
2018-12-01T19:52:43.490Z,71.70
2018-12-01T19:55:12.562Z,71.40
2018-12-01T19:57:41.164Z,71.10
2018-12-01T20:00:13.570Z,71.20
2018-12-01T20:02:41.708Z,71.30
2018-12-01T20:05:12.702Z,71.40
2018-12-01T20:07:40.942Z,71.70
2018-12-01T20:10:11.898Z,71.50
2018-12-01T20:12:40.004Z,71.80
2018-12-01T20:15:16.290Z,71.80
2018-12-01T20:17:44.328Z,71.90
2018-12-01T20:20:12.344Z,72.00
2018-12-01T20:22:40.492Z,71.40
2018-12-01T20:25:10.606Z,71.00
2018-12-01T20:27:38.632Z,71.00
2018-12-01T20:30:13.808Z,70.70
2018-12-01T20:32:41.851Z,70.80
2018-12-01T20:35:11.215Z,71.20
2018-12-01T20:37:40.142Z,70.80
2018-12-01T20:40:11.578Z,70.30
2018-12-01T20:42:39.654Z,70.00
2018-12-01T20:45:09.796Z,69.90
2018-12-01T20:47:37.838Z,69.60
2018-12-01T20:50:13.508Z,69.80
2018-12-01T20:52:41.821Z,69.50
2018-12-01T20:55:12.093Z,69.80
2018-12-01T20:57:40.380Z,70.00
2018-12-01T21:00:10.899Z,70.00
2018-12-01T21:02:39.868Z,69.60
2018-12-01T21:05:10.943Z,69.60
2018-12-01T21:07:38.941Z,69.90
2018-12-01T21:10:10.776Z,69.80
2018-12-01T21:12:38.744Z,69.20
2018-12-01T21:15:10.064Z,69.50
2018-12-01T21:17:38.754Z,69.30
2018-12-01T21:20:13.051Z,69.30
2018-12-01T21:22:42.312Z,69.40
2018-12-01T21:25:12.691Z,70.00
2018-12-01T21:27:40.732Z,69.50
2018-12-01T21:30:15.201Z,69.50
2018-12-01T21:32:43.455Z,69.80
2018-12-01T21:35:12.662Z,69.30
2018-12-01T21:37:40.874Z,69.50
2018-12-01T21:40:13.607Z,68.90
2018-12-01T21:42:41.663Z,68.90
2018-12-01T21:45:10.893Z,69.00
2018-12-01T21:47:38.936Z,69.00
2018-12-01T21:50:09.816Z,69.00
2018-12-01T21:52:37.830Z,69.00
2018-12-01T21:55:08.667Z,69.00
2018-12-01T21:57:36.728Z,69.00
2018-12-01T22:00:12.066Z,69.10
2018-12-01T22:02:40.187Z,69.10
2018-12-01T22:05:11.418Z,69.20
2018-12-01T22:07:39.417Z,69.20
2018-12-01T22:10:12.209Z,68.80
2018-12-01T22:12:40.171Z,69.20
2018-12-01T22:15:13.067Z,69.30
2018-12-01T22:17:41.121Z,68.90
2018-12-01T22:20:13.651Z,68.80
2018-12-01T22:22:41.675Z,69.00
2018-12-01T22:25:10.435Z,69.00
2018-12-01T22:27:38.635Z,69.50
2018-12-01T22:30:10.840Z,69.30
2018-12-01T22:32:38.879Z,69.40
2018-12-01T22:35:10.668Z,69.40
2018-12-01T22:37:38.716Z,69.40
2018-12-01T22:40:23.369Z,69.50
2018-12-01T22:42:52.934Z,69.50
2018-12-01T22:45:20.955Z,69.50
2018-12-01T22:47:49.075Z,69.70
2018-12-01T22:50:19.277Z,69.60
2018-12-01T22:52:47.665Z,69.70
2018-12-01T22:55:17.889Z,69.70
2018-12-01T22:57:48.798Z,69.70
2018-12-01T23:00:20.635Z,69.80
2018-12-01T23:02:48.796Z,69.70
2018-12-01T23:05:17.117Z,69.70
2018-12-01T23:07:44.981Z,69.80
2018-12-01T23:10:14.220Z,69.90
2018-12-01T23:12:42.899Z,69.80
2018-12-01T23:15:16.204Z,70.00
2018-12-01T23:17:46.401Z,69.90
2018-12-01T23:20:17.686Z,70.10
2018-12-01T23:22:45.871Z,71.00
2018-12-01T23:25:13.887Z,70.40
2018-12-01T23:27:41.959Z,70.70
2018-12-01T23:30:16.971Z,70.70
2018-12-01T23:32:46.219Z,71.00
2018-12-01T23:35:14.267Z,71.10
2018-12-01T23:37:42.268Z,71.40
2018-12-01T23:40:11.718Z,71.50
2018-12-01T23:42:39.923Z,71.80
2018-12-01T23:45:13.053Z,71.80
2018-12-01T23:47:41.103Z,72.00
2018-12-01T23:50:19.905Z,72.30
2018-12-01T23:52:49.701Z,72.50
2018-12-01T23:55:17.715Z,73.80
2018-12-01T23:57:45.735Z,74.40
